sensor_id;sensor_type;location;lat;lon;timestamp;pressure;altitude;pressure_sealevel;temperature;humidity
12793;BME280;6460;42.684;23.260;2024-03-25T00:18:32;93359.53;;;3.10;100.00
12793;BME280;6460;42.684;23.260;2024-03-25T00:21:01;93351.06;;;3.20;100.00
12793;BME280;6460;42.684;23.260;2024-03-25T00:23:28;93354.81;;;3.32;100.00
12793;BME280;6460;42.684;23.260;2024-03-25T00:25:56;93352.63;;;3.22;100.00
12793;BME280;6460;42.684;23.260;2024-03-25T00:28:23;93339.97;;;3.31;100.00
12793;BME280;6460;42.684;23.260;2024-03-25T00:30:51;93339.59;;;3.16;100.00
12793;BME280;6460;42.684;23.260;2024-03-25T00:33:18;93337.47;;;3.22;100.00
12793;BME280;6460;42.684;23.260;2024-03-25T00:35:48;93336.25;;;3.63;100.00
12793;BME280;6460;42.684;23.260;2024-03-25T00:38:15;93343.75;;;3.45;100.00
12793;BME280;6460;42.684;23.260;2024-03-25T00:40:43;93337.63;;;3.57;100.00
12793;BME280;6460;42.684;23.260;2024-03-25T00:43:10;93347.59;;;3.91;100.00
12793;BME280;6460;42.684;23.260;2024-03-25T00:45:38;93340.53;;;3.83;100.00
12793;BME280;6460;42.684;23.260;2024-03-25T00:48:08;93341.56;;;3.94;100.00
12793;BME280;6460;42.684;23.260;2024-03-25T00:50:36;93359.22;;;3.87;100.00
12793;BME280;6460;42.684;23.260;2024-03-25T00:53:05;93347.81;;;3.70;100.00
12793;BME280;6460;42.684;23.260;2024-03-25T01:11:06;93286.22;;;3.65;100.00
12793;BME280;6460;42.684;23.260;2024-03-25T01:13:36;93275.41;;;3.58;100.00
12793;BME280;6460;42.684;23.260;2024-03-25T01:16:03;93277.13;;;3.82;100.00
12793;BME280;6460;42.684;23.260;2024-03-25T01:18:32;93272.47;;;3.94;100.00
12793;BME280;6460;42.684;23.260;2024-03-25T01:20:59;93269.50;;;4.31;100.00
12793;BME280;6460;42.684;23.260;2024-03-25T01:23:28;93268.72;;;4.30;100.00
12793;BME280;6460;42.684;23.260;2024-03-25T01:25:55;93266.31;;;4.25;100.00
12793;BME280;6460;42.684;23.260;2024-03-25T01:28:25;93279.44;;;4.34;100.00
12793;BME280;6460;42.684;23.260;2024-03-25T01:30:52;93277.13;;;4.32;100.00
12793;BME280;6460;42.684;23.260;2024-03-25T01:33:21;93279.38;;;4.30;100.00
12793;BME280;6460;42.684;23.260;2024-03-25T01:35:48;93282.34;;;4.63;100.00
12793;BME280;6460;42.684;23.260;2024-03-25T01:38:16;93295.44;;;4.72;100.00
12793;BME280;6460;42.684;23.260;2024-03-25T01:40:44;93297.13;;;4.80;100.00
12793;BME280;6460;42.684;23.260;2024-03-25T01:43:14;93295.47;;;4.91;100.00
12793;BME280;6460;42.684;23.260;2024-03-25T01:45:44;93295.44;;;5.10;100.00
12793;BME280;6460;42.684;23.260;2024-03-25T01:48:12;93288.78;;;5.20;100.00
12793;BME280;6460;42.684;23.260;2024-03-25T01:50:43;93289.69;;;5.08;100.00
12793;BME280;6460;42.684;23.260;2024-03-25T01:53:16;93303.09;;;4.93;100.00
12793;BME280;6460;42.684;23.260;2024-03-25T01:55:43;93307.34;;;4.78;100.00
12793;BME280;6460;42.684;23.260;2024-03-25T01:58:11;93329.44;;;4.63;100.00
12793;BME280;6460;42.684;23.260;2024-03-25T02:00:38;93323.84;;;4.49;100.00
12793;BME280;6460;42.684;23.260;2024-03-25T02:03:08;93345.19;;;4.17;100.00
12793;BME280;6460;42.684;23.260;2024-03-25T02:05:35;93337.97;;;4.02;100.00
12793;BME280;6460;42.684;23.260;2024-03-25T02:08:04;93336.53;;;3.89;100.00
12793;BME280;6460;42.684;23.260;2024-03-25T02:10:32;93335.81;;;3.77;100.00
12793;BME280;6460;42.684;23.260;2024-03-25T02:20:48;93335.38;;;3.59;100.00
12793;BME280;6460;42.684;23.260;2024-03-25T02:23:16;93325.03;;;3.54;100.00
12793;BME280;6460;42.684;23.260;2024-03-25T02:25:49;93316.97;;;3.66;100.00
12793;BME280;6460;42.684;23.260;2024-03-25T02:28:23;93326.22;;;3.88;100.00
12793;BME280;6460;42.684;23.260;2024-03-25T02:30:50;93329.41;;;3.93;100.00
12793;BME280;6460;42.684;23.260;2024-03-25T02:33:19;93329.84;;;3.95;100.00
12793;BME280;6460;42.684;23.260;2024-03-25T02:35:46;93326.31;;;3.91;100.00
12793;BME280;6460;42.684;23.260;2024-03-25T02:38:15;93325.72;;;3.82;100.00
12793;BME280;6460;42.684;23.260;2024-03-25T02:40:44;93327.88;;;3.92;100.00
12793;BME280;6460;42.684;23.260;2024-03-25T02:43:17;93331.63;;;3.91;100.00
12793;BME280;6460;42.684;23.260;2024-03-25T02:45:47;93337.81;;;3.95;100.00
12793;BME280;6460;42.684;23.260;2024-03-25T02:48:15;93330.59;;;3.96;100.00
12793;BME280;6460;42.684;23.260;2024-03-25T02:50:42;93335.22;;;3.83;100.00
12793;BME280;6460;42.684;23.260;2024-03-25T02:53:10;93354.97;;;3.82;100.00
12793;BME280;6460;42.684;23.260;2024-03-25T02:55:36;93355.97;;;3.93;100.00
12793;BME280;6460;42.684;23.260;2024-03-25T02:58:04;93357.34;;;3.87;100.00
12793;BME280;6460;42.684;23.260;2024-03-25T03:00:32;93382.53;;;3.78;100.00
12793;BME280;6460;42.684;23.260;2024-03-25T03:10:40;93364.59;;;3.59;100.00
12793;BME280;6460;42.684;23.260;2024-03-25T03:20:55;93347.47;;;3.56;100.00
12793;BME280;6460;42.684;23.260;2024-03-25T03:23:23;93362.91;;;3.66;100.00
12793;BME280;6460;42.684;23.260;2024-03-25T03:31:02;93381.84;;;3.65;100.00
12793;BME280;6460;42.684;23.260;2024-03-25T03:33:30;93384.88;;;3.79;100.00
12793;BME280;6460;42.684;23.260;2024-03-25T03:35:59;93385.19;;;3.93;100.00
12793;BME280;6460;42.684;23.260;2024-03-25T03:38:27;93391.63;;;3.77;100.00
12793;BME280;6460;42.684;23.260;2024-03-25T03:40:58;93381.53;;;3.98;100.00
12793;BME280;6460;42.684;23.260;2024-03-25T03:43:34;93385.75;;;3.99;100.00
12793;BME280;6460;42.684;23.260;2024-03-25T03:59:00;93397.66;;;4.20;100.00
12793;BME280;6460;42.684;23.260;2024-03-25T04:01:39;93397.47;;;4.13;100.00
12793;BME280;6460;42.684;23.260;2024-03-25T04:04:23;93414.13;;;4.10;100.00
12793;BME280;6460;42.684;23.260;2024-03-25T04:07:06;93430.75;;;4.07;100.00
12793;BME280;6460;42.684;23.260;2024-03-25T05:46:14;93540.56;;;4.23;100.00
12793;BME280;6460;42.684;23.260;2024-03-25T05:52:00;93548.38;;;4.32;100.00
12793;BME280;6460;42.684;23.260;2024-03-25T05:54:28;93555.00;;;4.54;100.00
12793;BME280;6460;42.684;23.260;2024-03-25T06:27:43;93607.59;;;4.88;100.00
12793;BME280;6460;42.684;23.260;2024-03-25T06:40:23;93613.22;;;5.18;100.00
12793;BME280;6460;42.684;23.260;2024-03-25T06:42:51;93614.28;;;5.13;100.00
12793;BME280;6460;42.684;23.260;2024-03-25T06:45:17;93622.41;;;5.36;100.00
12793;BME280;6460;42.684;23.260;2024-03-25T06:55:00;93630.50;;;4.93;100.00
12793;BME280;6460;42.684;23.260;2024-03-25T07:25:31;93682.75;;;5.60;91.30
12793;BME280;6460;42.684;23.260;2024-03-25T07:30:46;93659.41;;;5.88;90.24
12793;BME280;6460;42.684;23.260;2024-03-25T07:33:16;93668.69;;;5.94;90.25
12793;BME280;6460;42.684;23.260;2024-03-25T07:35:46;93658.81;;;5.95;89.31
12793;BME280;6460;42.684;23.260;2024-03-25T07:38:37;93657.91;;;6.25;89.19
12793;BME280;6460;42.684;23.260;2024-03-25T07:41:57;93661.59;;;6.56;87.80
12793;BME280;6460;42.684;23.260;2024-03-25T07:44:42;93657.66;;;6.69;84.79
12793;BME280;6460;42.684;23.260;2024-03-25T07:55:09;93678.72;;;6.35;86.41
12793;BME280;6460;42.684;23.260;2024-03-25T07:57:37;93684.34;;;6.50;85.34
12793;BME280;6460;42.684;23.260;2024-03-25T08:00:05;93663.97;;;6.61;85.00
12793;BME280;6460;42.684;23.260;2024-03-25T08:02:38;93679.16;;;6.76;84.09
12793;BME280;6460;42.684;23.260;2024-03-25T08:14:26;93679.63;;;6.81;82.19
12793;BME280;6460;42.684;23.260;2024-03-25T08:17:20;93680.81;;;6.84;82.23
12793;BME280;6460;42.684;23.260;2024-03-25T08:27:42;93697.84;;;6.76;79.77
12793;BME280;6460;42.684;23.260;2024-03-25T08:43:37;93718.84;;;7.38;75.64
12793;BME280;6460;42.684;23.260;2024-03-25T08:46:22;93716.34;;;7.26;74.30
12793;BME280;6460;42.684;23.260;2024-03-25T08:48:53;93713.75;;;7.53;75.38
12793;BME280;6460;42.684;23.260;2024-03-25T08:51:52;93707.13;;;7.69;76.87
12793;BME280;6460;42.684;23.260;2024-03-25T08:55:01;93711.41;;;7.74;76.05
12793;BME280;6460;42.684;23.260;2024-03-25T08:57:29;93715.38;;;7.38;74.99
12793;BME280;6460;42.684;23.260;2024-03-25T09:03:01;93725.06;;;7.23;75.94
12793;BME280;6460;42.684;23.260;2024-03-25T09:05:48;93717.28;;;7.37;74.76
12793;BME280;6460;42.684;23.260;2024-03-25T09:08:18;93706.53;;;7.11;74.39
12793;BME280;6460;42.684;23.260;2024-03-25T09:10:48;93718.13;;;7.41;75.00
12793;BME280;6460;42.684;23.260;2024-03-25T09:20:29;93721.47;;;7.16;75.19
12793;BME280;6460;42.684;23.260;2024-03-25T09:22:59;93738.59;;;6.92;75.24
12793;BME280;6460;42.684;23.260;2024-03-25T09:26:04;93739.31;;;6.89;76.09
12793;BME280;6460;42.684;23.260;2024-03-25T09:28:56;93742.88;;;6.97;75.37
12793;BME280;6460;42.684;23.260;2024-03-25T09:31:50;93721.56;;;7.19;75.72
12793;BME280;6460;42.684;23.260;2024-03-25T09:34:33;93727.25;;;7.40;75.06
12793;BME280;6460;42.684;23.260;2024-03-25T09:40:20;93733.22;;;7.30;73.46
12793;BME280;6460;42.684;23.260;2024-03-25T09:42:52;93730.81;;;7.25;74.97
12793;BME280;6460;42.684;23.260;2024-03-25T09:45:24;93732.50;;;7.33;73.83
12793;BME280;6460;42.684;23.260;2024-03-25T09:50:48;93734.88;;;7.38;74.08
12793;BME280;6460;42.684;23.260;2024-03-25T09:57:08;93725.63;;;7.55;73.07
12793;BME280;6460;42.684;23.260;2024-03-25T09:59:36;93724.19;;;7.61;72.61
12793;BME280;6460;42.684;23.260;2024-03-25T10:02:33;93729.81;;;7.79;71.40
12793;BME280;6460;42.684;23.260;2024-03-25T10:10:20;93735.09;;;7.98;69.37
12793;BME280;6460;42.684;23.260;2024-03-25T10:13:19;93738.75;;;8.35;68.65
12793;BME280;6460;42.684;23.260;2024-03-25T10:16:17;93744.00;;;8.28;66.62
12793;BME280;6460;42.684;23.260;2024-03-25T10:18:56;93737.53;;;8.29;65.16
12793;BME280;6460;42.684;23.260;2024-03-25T10:21:30;93735.63;;;8.07;64.69
12793;BME280;6460;42.684;23.260;2024-03-25T10:24:00;93749.16;;;8.18;60.59
12793;BME280;6460;42.684;23.260;2024-03-25T10:27:21;93737.59;;;8.36;60.28
12793;BME280;6460;42.684;23.260;2024-03-25T10:39:52;93730.97;;;8.53;55.74
12793;BME280;6460;42.684;23.260;2024-03-25T10:42:35;93736.88;;;8.39;54.79
12793;BME280;6460;42.684;23.260;2024-03-25T10:50:15;93749.91;;;8.67;52.60
12793;BME280;6460;42.684;23.260;2024-03-25T10:52:46;93734.69;;;8.75;50.57
12793;BME280;6460;42.684;23.260;2024-03-25T10:55:19;93720.28;;;8.86;53.41
12793;BME280;6460;42.684;23.260;2024-03-25T11:01:43;93730.88;;;8.76;56.28
12793;BME280;6460;42.684;23.260;2024-03-25T11:04:29;93728.75;;;9.22;52.64
12793;BME280;6460;42.684;23.260;2024-03-25T11:23:12;93744.75;;;8.85;62.23
12793;BME280;6460;42.684;23.260;2024-03-25T11:28:45;93747.91;;;8.34;67.91
12793;BME280;6460;42.684;23.260;2024-03-25T11:31:15;93752.88;;;8.10;68.07
12793;BME280;6460;42.684;23.260;2024-03-25T11:33:45;93753.41;;;7.96;69.04
12793;BME280;6460;42.684;23.260;2024-03-25T11:36:13;93748.69;;;8.12;68.33
12793;BME280;6460;42.684;23.260;2024-03-25T11:45:21;93755.94;;;8.61;67.13
12793;BME280;6460;42.684;23.260;2024-03-25T11:47:49;93737.75;;;8.73;66.59
12793;BME280;6460;42.684;23.260;2024-03-25T11:50:18;93737.78;;;9.43;63.06
12793;BME280;6460;42.684;23.260;2024-03-25T11:53:07;93746.66;;;9.91;58.96
12793;BME280;6460;42.684;23.260;2024-03-25T11:55:51;93736.28;;;10.41;59.46
12793;BME280;6460;42.684;23.260;2024-03-25T11:58:24;93743.84;;;10.25;56.29
12793;BME280;6460;42.684;23.260;2024-03-25T12:01:15;93734.38;;;10.41;50.63
12793;BME280;6460;42.684;23.260;2024-03-25T12:14:34;93744.66;;;9.41;56.20
12793;BME280;6460;42.684;23.260;2024-03-25T12:21:21;93738.25;;;9.52;53.80
12793;BME280;6460;42.684;23.260;2024-03-25T12:23:51;93770.50;;;9.60;53.45
12793;BME280;6460;42.684;23.260;2024-03-25T12:26:19;93748.19;;;9.15;54.37
12793;BME280;6460;42.684;23.260;2024-03-25T12:28:52;93747.88;;;8.87;56.73
12793;BME280;6460;42.684;23.260;2024-03-25T12:31:28;93729.53;;;9.26;55.10
12793;BME280;6460;42.684;23.260;2024-03-25T12:33:58;93755.66;;;9.69;54.19
12793;BME280;6460;42.684;23.260;2024-03-25T12:49:46;93761.00;;;10.13;47.93
12793;BME280;6460;42.684;23.260;2024-03-25T12:52:13;93730.63;;;10.02;48.75
12793;BME280;6460;42.684;23.260;2024-03-25T12:54:39;93757.06;;;10.00;49.04
12793;BME280;6460;42.684;23.260;2024-03-25T12:57:05;93755.47;;;9.92;49.88
12793;BME280;6460;42.684;23.260;2024-03-25T12:59:32;93751.72;;;9.60;54.36
12793;BME280;6460;42.684;23.260;2024-03-25T13:01:59;93748.34;;;9.29;53.86
12793;BME280;6460;42.684;23.260;2024-03-25T13:25:09;93769.31;;;8.90;50.94
12793;BME280;6460;42.684;23.260;2024-03-25T13:27:35;93764.09;;;9.01;48.57
12793;BME280;6460;42.684;23.260;2024-03-25T13:30:01;93768.34;;;9.39;49.50
12793;BME280;6460;42.684;23.260;2024-03-25T13:32:28;93765.66;;;9.72;49.49
12793;BME280;6460;42.684;23.260;2024-03-25T13:34:54;93767.91;;;9.67;46.27
12793;BME280;6460;42.684;23.260;2024-03-25T13:37:21;93775.75;;;9.49;46.82
12793;BME280;6460;42.684;23.260;2024-03-25T13:39:47;93763.28;;;9.67;46.60
12793;BME280;6460;42.684;23.260;2024-03-25T13:42:16;93771.72;;;9.66;46.40
12793;BME280;6460;42.684;23.260;2024-03-25T13:44:43;93785.56;;;9.71;46.23
12793;BME280;6460;42.684;23.260;2024-03-25T13:47:09;93797.00;;;9.65;45.71
12793;BME280;6460;42.684;23.260;2024-03-25T13:49:35;93801.31;;;9.39;46.13
12793;BME280;6460;42.684;23.260;2024-03-25T13:52:03;93795.31;;;9.49;45.49
12793;BME280;6460;42.684;23.260;2024-03-25T13:59:41;93833.22;;;8.13;60.46
12793;BME280;6460;42.684;23.260;2024-03-25T14:02:07;93841.69;;;7.73;66.10
12793;BME280;6460;42.684;23.260;2024-03-25T14:04:34;93837.44;;;7.50;69.30
12793;BME280;6460;42.684;23.260;2024-03-25T14:07:03;93840.22;;;7.57;70.00
12793;BME280;6460;42.684;23.260;2024-03-25T14:09:30;93847.97;;;7.62;69.20
12793;BME280;6460;42.684;23.260;2024-03-25T14:11:56;93847.00;;;8.15;67.71
12793;BME280;6460;42.684;23.260;2024-03-25T14:50:36;93841.66;;;9.50;54.54
12793;BME280;6460;42.684;23.260;2024-03-25T14:53:03;93822.81;;;10.17;53.41
12793;BME280;6460;42.684;23.260;2024-03-25T14:55:30;93832.63;;;10.42;52.20
12793;BME280;6460;42.684;23.260;2024-03-25T14:57:57;93822.75;;;10.13;52.95
12793;BME280;6460;42.684;23.260;2024-03-25T15:00:23;93821.84;;;9.95;53.36
12793;BME280;6460;42.684;23.260;2024-03-25T15:02:50;93827.81;;;10.66;50.69
12793;BME280;6460;42.684;23.260;2024-03-25T15:05:17;93837.31;;;10.12;52.23
12793;BME280;6460;42.684;23.260;2024-03-25T15:07:45;93837.59;;;10.37;52.47
12793;BME280;6460;42.684;23.260;2024-03-25T15:10:12;93837.78;;;10.14;51.91
12793;BME280;6460;42.684;23.260;2024-03-25T15:12:38;93845.56;;;9.93;53.89
12793;BME280;6460;42.684;23.260;2024-03-25T15:15:06;93855.47;;;9.22;58.20
12793;BME280;6460;42.684;23.260;2024-03-25T15:17:33;93869.41;;;9.31;57.71
12793;BME280;6460;42.684;23.260;2024-03-25T15:25:13;93854.13;;;9.35;61.15
12793;BME280;6460;42.684;23.260;2024-03-25T15:27:42;93871.81;;;9.10;60.64
12793;BME280;6460;42.684;23.260;2024-03-25T15:30:12;93873.69;;;9.06;57.79
12793;BME280;6460;42.684;23.260;2024-03-25T15:35:13;93879.66;;;8.96;51.35
12793;BME280;6460;42.684;23.260;2024-03-25T15:37:40;93865.78;;;8.90;51.62
12793;BME280;6460;42.684;23.260;2024-03-25T15:40:13;93865.66;;;9.10;51.23
12793;BME280;6460;42.684;23.260;2024-03-25T15:42:40;93873.69;;;9.06;53.63
12793;BME280;6460;42.684;23.260;2024-03-25T15:45:07;93892.22;;;9.18;53.60
12793;BME280;6460;42.684;23.260;2024-03-25T15:47:49;93898.75;;;9.21;54.28
12793;BME280;6460;42.684;23.260;2024-03-25T15:50:16;93905.50;;;9.11;55.18
12793;BME280;6460;42.684;23.260;2024-03-25T15:52:43;93907.78;;;8.83;55.83
12793;BME280;6460;42.684;23.260;2024-03-25T15:58:45;93902.41;;;8.34;56.87
12793;BME280;6460;42.684;23.260;2024-03-25T16:01:14;93908.53;;;8.34;56.74
12793;BME280;6460;42.684;23.260;2024-03-25T16:03:41;93900.97;;;8.63;55.68
12793;BME280;6460;42.684;23.260;2024-03-25T16:06:08;93901.56;;;8.52;55.34
12793;BME280;6460;42.684;23.260;2024-03-25T16:08:41;93909.88;;;8.25;54.02
12793;BME280;6460;42.684;23.260;2024-03-25T16:11:14;93915.97;;;8.44;52.00
12793;BME280;6460;42.684;23.260;2024-03-25T16:13:48;93904.88;;;8.46;49.79
12793;BME280;6460;42.684;23.260;2024-03-25T16:16:15;93908.28;;;8.66;48.42
12793;BME280;6460;42.684;23.260;2024-03-25T16:18:41;93909.41;;;8.19;49.10
12793;BME280;6460;42.684;23.260;2024-03-25T16:21:13;93911.44;;;8.26;46.57
12793;BME280;6460;42.684;23.260;2024-03-25T16:23:42;93913.03;;;7.88;48.51
12793;BME280;6460;42.684;23.260;2024-03-25T16:26:08;93906.97;;;7.91;50.71
12793;BME280;6460;42.684;23.260;2024-03-25T16:28:34;93916.22;;;7.56;51.83
12793;BME280;6460;42.684;23.260;2024-03-25T16:31:03;93908.75;;;7.65;51.49
12793;BME280;6460;42.684;23.260;2024-03-25T16:33:39;93917.63;;;7.50;51.77
12793;BME280;6460;42.684;23.260;2024-03-25T16:36:05;93918.56;;;7.22;53.47
12793;BME280;6460;42.684;23.260;2024-03-25T16:38:31;93916.72;;;7.42;53.04
12793;BME280;6460;42.684;23.260;2024-03-25T16:40:57;93914.09;;;6.91;56.10
12793;BME280;6460;42.684;23.260;2024-03-25T16:43:23;93917.09;;;6.90;56.37
12793;BME280;6460;42.684;23.260;2024-03-25T16:45:49;93911.75;;;6.90;56.41
12793;BME280;6460;42.684;23.260;2024-03-25T16:48:31;93919.66;;;7.02;57.28
12793;BME280;6460;42.684;23.260;2024-03-25T16:51:12;93915.25;;;7.10;55.58
12793;BME280;6460;42.684;23.260;2024-03-25T16:53:38;93922.91;;;6.61;57.96
12793;BME280;6460;42.684;23.260;2024-03-25T16:56:05;93924.72;;;6.72;59.09
12793;BME280;6460;42.684;23.260;2024-03-25T16:58:34;93921.63;;;6.86;59.23
12793;BME280;6460;42.684;23.260;2024-03-25T17:01:00;93922.66;;;6.66;59.78
12793;BME280;6460;42.684;23.260;2024-03-25T17:03:27;93933.25;;;6.78;59.35
12793;BME280;6460;42.684;23.260;2024-03-25T17:05:55;93925.34;;;6.66;60.44
12793;BME280;6460;42.684;23.260;2024-03-25T17:08:22;93922.06;;;6.57;61.33
12793;BME280;6460;42.684;23.260;2024-03-25T17:10:48;93936.25;;;6.61;61.38
12793;BME280;6460;42.684;23.260;2024-03-25T17:13:14;93934.34;;;6.77;61.18
12793;BME280;6460;42.684;23.260;2024-03-25T17:15:40;93946.50;;;6.74;61.36
12793;BME280;6460;42.684;23.260;2024-03-25T17:18:11;93946.00;;;6.69;61.28
12793;BME280;6460;42.684;23.260;2024-03-25T17:20:37;93934.41;;;6.96;60.22
12793;BME280;6460;42.684;23.260;2024-03-25T17:23:05;93938.38;;;6.86;60.39
12793;BME280;6460;42.684;23.260;2024-03-25T17:25:32;93945.59;;;6.67;60.88
12793;BME280;6460;42.684;23.260;2024-03-25T17:27:59;93936.44;;;6.68;60.61
12793;BME280;6460;42.684;23.260;2024-03-25T17:30:35;93937.91;;;6.65;61.11
12793;BME280;6460;42.684;23.260;2024-03-25T17:33:02;93949.19;;;6.59;61.23
12793;BME280;6460;42.684;23.260;2024-03-25T17:35:29;93955.22;;;6.56;61.84
12793;BME280;6460;42.684;23.260;2024-03-25T17:37:55;93952.28;;;6.61;61.83
12793;BME280;6460;42.684;23.260;2024-03-25T17:40:23;93955.38;;;6.63;61.77
12793;BME280;6460;42.684;23.260;2024-03-25T17:42:49;93965.56;;;6.73;60.48
12793;BME280;6460;42.684;23.260;2024-03-25T17:45:15;93981.41;;;6.66;60.51
12793;BME280;6460;42.684;23.260;2024-03-25T17:47:44;93974.22;;;6.54;61.23
12793;BME280;6460;42.684;23.260;2024-03-25T17:50:12;93971.50;;;6.51;61.21
12793;BME280;6460;42.684;23.260;2024-03-25T17:52:38;93977.34;;;6.72;59.91
12793;BME280;6460;42.684;23.260;2024-03-25T17:55:05;93976.38;;;6.49;61.73
12793;BME280;6460;42.684;23.260;2024-03-25T17:57:35;93979.50;;;6.66;61.25
12793;BME280;6460;42.684;23.260;2024-03-25T18:00:01;93977.34;;;6.56;61.69
12793;BME280;6460;42.684;23.260;2024-03-25T18:02:27;93984.25;;;6.57;62.06
12793;BME280;6460;42.684;23.260;2024-03-25T18:04:53;93986.63;;;6.47;62.65
12793;BME280;6460;42.684;23.260;2024-03-25T18:07:19;93993.88;;;6.46;62.47
12793;BME280;6460;42.684;23.260;2024-03-25T18:09:45;94004.63;;;6.50;62.37
12793;BME280;6460;42.684;23.260;2024-03-25T18:12:11;93993.63;;;6.67;62.04
12793;BME280;6460;42.684;23.260;2024-03-25T18:14:39;94009.09;;;6.46;61.98
12793;BME280;6460;42.684;23.260;2024-03-25T18:17:05;94010.47;;;6.39;62.87
12793;BME280;6460;42.684;23.260;2024-03-25T18:19:32;94016.91;;;6.38;63.62
12793;BME280;6460;42.684;23.260;2024-03-25T18:21:58;94014.03;;;6.59;62.57
12793;BME280;6460;42.684;23.260;2024-03-25T18:24:24;94019.19;;;6.52;62.24
12793;BME280;6460;42.684;23.260;2024-03-25T18:26:51;94023.78;;;6.24;63.77
12793;BME280;6460;42.684;23.260;2024-03-25T18:29:20;94024.31;;;6.29;64.04
12793;BME280;6460;42.684;23.260;2024-03-25T18:31:48;94020.19;;;6.32;63.54
12793;BME280;6460;42.684;23.260;2024-03-25T18:34:14;94028.34;;;6.23;64.63
12793;BME280;6460;42.684;23.260;2024-03-25T18:36:40;94016.28;;;6.57;62.73
12793;BME280;6460;42.684;23.260;2024-03-25T18:39:07;94023.50;;;6.13;65.24
12793;BME280;6460;42.684;23.260;2024-03-25T18:41:33;94028.25;;;6.20;64.75
12793;BME280;6460;42.684;23.260;2024-03-25T18:43:59;94018.75;;;6.34;64.84
12793;BME280;6460;42.684;23.260;2024-03-25T18:46:25;94023.41;;;6.10;65.78
12793;BME280;6460;42.684;23.260;2024-03-25T18:48:52;94024.78;;;6.19;64.95
12793;BME280;6460;42.684;23.260;2024-03-25T18:51:18;94029.22;;;6.27;65.21
12793;BME280;6460;42.684;23.260;2024-03-25T18:53:45;94014.53;;;6.49;62.82
12793;BME280;6460;42.684;23.260;2024-03-25T18:56:11;94028.03;;;6.41;63.01
12793;BME280;6460;42.684;23.260;2024-03-25T18:58:39;94028.47;;;6.43;63.03
12793;BME280;6460;42.684;23.260;2024-03-25T19:01:06;94026.06;;;6.37;63.46
12793;BME280;6460;42.684;23.260;2024-03-25T19:03:33;94036.75;;;6.37;63.39
12793;BME280;6460;42.684;23.260;2024-03-25T19:06:02;94036.88;;;6.29;64.01
12793;BME280;6460;42.684;23.260;2024-03-25T19:08:28;94036.78;;;6.25;63.84
12793;BME280;6460;42.684;23.260;2024-03-25T19:10:55;94053.66;;;6.29;63.41
12793;BME280;6460;42.684;23.260;2024-03-25T19:13:25;94049.00;;;6.26;63.57
12793;BME280;6460;42.684;23.260;2024-03-25T19:16:18;94050.56;;;6.27;63.78
12793;BME280;6460;42.684;23.260;2024-03-25T19:18:44;94060.97;;;6.32;63.21
12793;BME280;6460;42.684;23.260;2024-03-25T19:21:12;94061.34;;;6.31;63.16
12793;BME280;6460;42.684;23.260;2024-03-25T19:23:38;94055.66;;;6.32;62.79
12793;BME280;6460;42.684;23.260;2024-03-25T19:26:05;94046.41;;;6.58;60.79
12793;BME280;6460;42.684;23.260;2024-03-25T19:28:31;94035.13;;;6.64;59.12
12793;BME280;6460;42.684;23.260;2024-03-25T19:30:57;94048.38;;;6.61;58.50
12793;BME280;6460;42.684;23.260;2024-03-25T19:33:23;94056.25;;;6.69;58.13
12793;BME280;6460;42.684;23.260;2024-03-25T19:35:50;94059.81;;;6.89;56.87
12793;BME280;6460;42.684;23.260;2024-03-25T19:38:17;94056.50;;;6.80;58.50
12793;BME280;6460;42.684;23.260;2024-03-25T19:40:43;94065.09;;;6.58;58.19
12793;BME280;6460;42.684;23.260;2024-03-25T19:43:10;94063.06;;;6.67;57.41
12793;BME280;6460;42.684;23.260;2024-03-25T19:45:36;94069.56;;;6.54;57.37
12793;BME280;6460;42.684;23.260;2024-03-25T19:48:03;94079.91;;;6.55;56.99
12793;BME280;6460;42.684;23.260;2024-03-25T19:50:29;94084.91;;;6.57;58.17
12793;BME280;6460;42.684;23.260;2024-03-25T19:52:55;94078.75;;;6.41;60.90
12793;BME280;6460;42.684;23.260;2024-03-25T19:55:23;94074.25;;;6.45;60.65
12793;BME280;6460;42.684;23.260;2024-03-25T19:57:49;94076.00;;;6.37;61.06
12793;BME280;6460;42.684;23.260;2024-03-25T20:00:16;94079.47;;;6.25;61.78
12793;BME280;6460;42.684;23.260;2024-03-25T20:02:43;94078.63;;;6.21;62.37
12793;BME280;6460;42.684;23.260;2024-03-25T20:05:09;94076.41;;;6.11;62.13
12793;BME280;6460;42.684;23.260;2024-03-25T20:07:35;94089.56;;;6.04;62.72
12793;BME280;6460;42.684;23.260;2024-03-25T20:10:01;94092.63;;;6.18;61.59
12793;BME280;6460;42.684;23.260;2024-03-25T20:12:29;94094.41;;;6.14;62.03
12793;BME280;6460;42.684;23.260;2024-03-25T20:14:55;94092.84;;;6.13;61.85
12793;BME280;6460;42.684;23.260;2024-03-25T20:17:22;94098.88;;;6.10;62.61
12793;BME280;6460;42.684;23.260;2024-03-25T20:19:48;94101.31;;;6.03;62.92
12793;BME280;6460;42.684;23.260;2024-03-25T20:22:14;94100.91;;;6.01;63.38
12793;BME280;6460;42.684;23.260;2024-03-25T20:24:40;94104.78;;;6.04;63.19
12793;BME280;6460;42.684;23.260;2024-03-25T20:27:07;94100.44;;;6.11;61.77
12793;BME280;6460;42.684;23.260;2024-03-25T20:29:35;94096.16;;;6.22;61.65
12793;BME280;6460;42.684;23.260;2024-03-25T20:32:01;94093.00;;;6.60;62.50
12793;BME280;6460;42.684;23.260;2024-03-25T20:34:28;94094.75;;;6.84;65.95
12793;BME280;6460;42.684;23.260;2024-03-25T20:36:54;94094.69;;;7.12;65.60
12793;BME280;6460;42.684;23.260;2024-03-25T20:39:21;94088.81;;;6.90;67.57
12793;BME280;6460;42.684;23.260;2024-03-25T20:41:47;94082.59;;;6.86;62.42
12793;BME280;6460;42.684;23.260;2024-03-25T20:44:14;94096.78;;;6.59;60.05
12793;BME280;6460;42.684;23.260;2024-03-25T21:02:14;94123.75;;;6.14;60.59
12793;BME280;6460;42.684;23.260;2024-03-25T21:04:41;94134.06;;;6.28;60.72
